CheckWX is a tool to help pilots better visualize weather data.  It is not intended as a substitute for an official pre-flight weather briefing.

13:57:03 UTC

2G4 METAR
Garrett County Airport
Oakland, Maryland, USA
Current

27 mins ago

K2G4 261330Z AUTO 19011G17KT 10SM BKN010 BKN016 BKN027 12/12 A2949 RMK AO1
Observed
Apr-26 @ 13:30 UTC
Wind
  • 190° at 11 KTS
  • Gusting to 17 KTS
Visibility
10 SM
Flight Rules
MVFR
Cloud Levels
  • Broken at 1,000' AGL
  • Broken at 1,600' AGL
  • Broken at 2,700' AGL
Temperature
12°C / 54°F
Dewpoint
12°C / 54°F
Humidity
100%
Altimeter
29.49" Hg
Pressure
998.62 hPa
Previous

47 mins ago

K2G4 261310Z AUTO 19010G15KT 10SM BKN010 BKN018 BKN025 12/12 A2951 RMK AO1
Observed
Apr-26 @ 13:10 UTC
Wind
  • 190° at 10 KTS
  • Gusting to 15 KTS
Visibility
10 SM
Flight Rules
MVFR
Cloud Levels
  • Broken at 1,000' AGL
  • Broken at 1,800' AGL
  • Broken at 2,500' AGL
Temperature
12°C / 54°F
Dewpoint
12°C / 54°F
Humidity
100%
Altimeter
29.51" Hg
Pressure
999.32 hPa
Previous

1 hour ago

K2G4 261250Z AUTO 17011G14KT 10SM SCT007 BKN010 BKN015 11/11 A2952 RMK AO1
Observed
Apr-26 @ 12:50 UTC
Wind
  • 170° at 11 KTS
  • Gusting to 14 KTS
Visibility
10 SM
Flight Rules
MVFR
Cloud Levels
  • Scattered at 700' AGL
  • Broken at 1,000' AGL
  • Broken at 1,500' AGL
Temperature
11°C / 52°F
Dewpoint
11°C / 52°F
Humidity
100%
Altimeter
29.52" Hg
Pressure
999.62 hPa